Mont-Joli, Canada
Current Conditions -  °F | °C
As of 6:00 PM on Saturday 25 Oct 2014 (Local Time) from CYYY Reporting Station
Light Rain Light Rain  
Wind Chill: 32°   Ceiling: 1500
Heat Index: 39°   Visibility: 15mi
Dew Point: 37°   Wind: 13mph
Humidity: 93%   Direction: 70°ENE
Pressure: 29.56"   Gusts: NA
Location:  48.59°N, 68.19°W
Report Text: CYYY 252200Z 07011KT 15SM -RA BKN015 OVC050 04/03 A2956 RMK SC6SC2 SLP013
Loading
Personal Weather Stations






























Interactive Weather Map
Tropical Storm Tracking
New forecast layout! Learn more

10-Day Weather Forecast

Advertisements
Track Severe Weather on mobile